sensor_id;sensor_type;location;lat;lon;timestamp;temperature;humidity
19862;DHT22;10093;48.148;8.542;2022-12-10T00:01:09;-0.50;99.90
19862;DHT22;10093;48.148;8.542;2022-12-10T00:03:35;-0.40;99.90
19862;DHT22;10093;48.148;8.542;2022-12-10T00:06:06;-0.30;99.90
19862;DHT22;10093;48.148;8.542;2022-12-10T00:08:33;-0.40;99.90
19862;DHT22;10093;48.148;8.542;2022-12-10T00:10:59;-0.40;99.90
19862;DHT22;10093;48.148;8.542;2022-12-10T00:13:24;-0.40;99.90
19862;DHT22;10093;48.148;8.542;2022-12-10T00:15:50;-0.20;99.90
19862;DHT22;10093;48.148;8.542;2022-12-10T00:18:16;-0.20;99.90
19862;DHT22;10093;48.148;8.542;2022-12-10T00:20:41;-0.20;99.90
19862;DHT22;10093;48.148;8.542;2022-12-10T00:23:07;-0.30;99.90
19862;DHT22;10093;48.148;8.542;2022-12-10T00:25:33;-0.40;99.90
19862;DHT22;10093;48.148;8.542;2022-12-10T00:27:58;-0.40;99.90
19862;DHT22;10093;48.148;8.542;2022-12-10T00:30:24;-0.40;99.90
19862;DHT22;10093;48.148;8.542;2022-12-10T00:32:50;-0.60;99.90
19862;DHT22;10093;48.148;8.542;2022-12-10T00:35:15;-0.70;99.90
19862;DHT22;10093;48.148;8.542;2022-12-10T00:37:41;-0.80;99.90
19862;DHT22;10093;48.148;8.542;2022-12-10T00:40:07;-0.90;99.90
19862;DHT22;10093;48.148;8.542;2022-12-10T00:42:33;-0.80;99.90
19862;DHT22;10093;48.148;8.542;2022-12-10T00:44:58;-0.90;99.90
19862;DHT22;10093;48.148;8.542;2022-12-10T00:47:24;-0.90;99.90
19862;DHT22;10093;48.148;8.542;2022-12-10T00:49:49;-0.90;99.90
19862;DHT22;10093;48.148;8.542;2022-12-10T00:52:15;-0.90;99.90
19862;DHT22;10093;48.148;8.542;2022-12-10T00:54:41;-1.00;99.90
19862;DHT22;10093;48.148;8.542;2022-12-10T00:57:07;-1.00;99.90
19862;DHT22;10093;48.148;8.542;2022-12-10T00:59:33;-1.00;99.90
19862;DHT22;10093;48.148;8.542;2022-12-10T01:01:58;-1.00;99.90
19862;DHT22;10093;48.148;8.542;2022-12-10T01:04:24;-1.00;99.90
19862;DHT22;10093;48.148;8.542;2022-12-10T01:06:51;-1.00;99.90
19862;DHT22;10093;48.148;8.542;2022-12-10T01:09:24;-0.50;99.90
19862;DHT22;10093;48.148;8.542;2022-12-10T01:11:51;-0.40;99.90
19862;DHT22;10093;48.148;8.542;2022-12-10T01:14:20;-0.30;99.90
19862;DHT22;10093;48.148;8.542;2022-12-10T01:16:46;-0.40;99.90
19862;DHT22;10093;48.148;8.542;2022-12-10T01:19:12;-0.60;99.90
19862;DHT22;10093;48.148;8.542;2022-12-10T01:21:38;-0.70;99.90
19862;DHT22;10093;48.148;8.542;2022-12-10T01:24:04;-0.70;99.90
19862;DHT22;10093;48.148;8.542;2022-12-10T01:26:32;-0.70;99.90
19862;DHT22;10093;48.148;8.542;2022-12-10T01:28:58;-0.70;99.90
19862;DHT22;10093;48.148;8.542;2022-12-10T01:31:31;-0.80;99.90
19862;DHT22;10093;48.148;8.542;2022-12-10T01:33:58;-1.00;99.90
19862;DHT22;10093;48.148;8.542;2022-12-10T01:36:27;-1.10;99.90
19862;DHT22;10093;48.148;8.542;2022-12-10T01:38:53;-1.10;99.90
19862;DHT22;10093;48.148;8.542;2022-12-10T01:44:53;-1.20;99.90
19862;DHT22;10093;48.148;8.542;2022-12-10T01:46:53;-1.10;99.90
19862;DHT22;10093;48.148;8.542;2022-12-10T01:49:24;-1.20;99.90
19862;DHT22;10093;48.148;8.542;2022-12-10T01:51:52;-1.20;99.90
19862;DHT22;10093;48.148;8.542;2022-12-10T01:54:25;-1.20;99.90
19862;DHT22;10093;48.148;8.542;2022-12-10T01:56:58;-1.20;99.90
19862;DHT22;10093;48.148;8.542;2022-12-10T01:59:24;-1.20;99.90
19862;DHT22;10093;48.148;8.542;2022-12-10T02:01:52;-1.20;99.90
19862;DHT22;10093;48.148;8.542;2022-12-10T02:04:50;-0.80;99.90
19862;DHT22;10093;48.148;8.542;2022-12-10T02:12:46;-0.90;99.90
19862;DHT22;10093;48.148;8.542;2022-12-10T02:15:21;-0.80;99.90
19862;DHT22;10093;48.148;8.542;2022-12-10T02:17:54;-0.50;99.90
19862;DHT22;10093;48.148;8.542;2022-12-10T02:20:29;-0.40;99.90
19862;DHT22;10093;48.148;8.542;2022-12-10T02:25:26;-0.50;99.90
19862;DHT22;10093;48.148;8.542;2022-12-10T02:30:24;-1.00;99.90
19862;DHT22;10093;48.148;8.542;2022-12-10T02:32:50;-1.10;99.90
19862;DHT22;10093;48.148;8.542;2022-12-10T02:35:20;-1.20;99.90
19862;DHT22;10093;48.148;8.542;2022-12-10T02:38:01;-1.20;99.90
19862;DHT22;10093;48.148;8.542;2022-12-10T02:40:33;-1.20;99.90
19862;DHT22;10093;48.148;8.542;2022-12-10T02:43:00;-1.20;99.90
19862;DHT22;10093;48.148;8.542;2022-12-10T02:45:28;-0.90;99.90
19862;DHT22;10093;48.148;8.542;2022-12-10T02:47:57;-0.60;99.90
19862;DHT22;10093;48.148;8.542;2022-12-10T02:50:24;-0.50;99.90
19862;DHT22;10093;48.148;8.542;2022-12-10T02:52:50;-0.50;99.90
19862;DHT22;10093;48.148;8.542;2022-12-10T02:55:17;-0.40;99.90
19862;DHT22;10093;48.148;8.542;2022-12-10T02:58:03;-0.50;99.90
19862;DHT22;10093;48.148;8.542;2022-12-10T03:00:31;-0.60;99.90
19862;DHT22;10093;48.148;8.542;2022-12-10T03:03:27;-0.60;99.90
19862;DHT22;10093;48.148;8.542;2022-12-10T03:06:02;-0.60;99.90
19862;DHT22;10093;48.148;8.542;2022-12-10T03:08:38;-0.70;99.90
19862;DHT22;10093;48.148;8.542;2022-12-10T03:16:12;-0.70;99.90
19862;DHT22;10093;48.148;8.542;2022-12-10T03:18:39;-0.80;99.90
19862;DHT22;10093;48.148;8.542;2022-12-10T03:21:06;-0.80;99.90
19862;DHT22;10093;48.148;8.542;2022-12-10T03:23:35;-0.90;99.90
19862;DHT22;10093;48.148;8.542;2022-12-10T03:26:02;-1.00;99.90
19862;DHT22;10093;48.148;8.542;2022-12-10T03:28:34;-0.70;99.90
19862;DHT22;10093;48.148;8.542;2022-12-10T03:31:01;-0.50;99.90
19862;DHT22;10093;48.148;8.542;2022-12-10T03:33:27;-0.30;99.90
19862;DHT22;10093;48.148;8.542;2022-12-10T03:35:53;-0.40;99.90
19862;DHT22;10093;48.148;8.542;2022-12-10T03:38:19;-0.50;99.90
19862;DHT22;10093;48.148;8.542;2022-12-10T03:40:44;-0.30;99.90
19862;DHT22;10093;48.148;8.542;2022-12-10T03:43:12;-0.30;99.90
19862;DHT22;10093;48.148;8.542;2022-12-10T03:45:39;-0.40;99.90
19862;DHT22;10093;48.148;8.542;2022-12-10T03:48:05;-0.40;99.90
19862;DHT22;10093;48.148;8.542;2022-12-10T03:50:31;-0.20;99.90
19862;DHT22;10093;48.148;8.542;2022-12-10T03:52:59;-0.10;99.90
19862;DHT22;10093;48.148;8.542;2022-12-10T03:55:25;-0.30;99.90
19862;DHT22;10093;48.148;8.542;2022-12-10T03:57:50;-0.10;99.90
19862;DHT22;10093;48.148;8.542;2022-12-10T04:00:16;-0.20;99.90
19862;DHT22;10093;48.148;8.542;2022-12-10T04:02:42;-0.10;99.90
19862;DHT22;10093;48.148;8.542;2022-12-10T04:05:08;-0.10;99.90
19862;DHT22;10093;48.148;8.542;2022-12-10T04:07:34;-0.10;99.90
19862;DHT22;10093;48.148;8.542;2022-12-10T04:09:59;-0.40;99.90
19862;DHT22;10093;48.148;8.542;2022-12-10T04:12:25;-0.70;99.90
19862;DHT22;10093;48.148;8.542;2022-12-10T04:14:51;-0.70;99.90
19862;DHT22;10093;48.148;8.542;2022-12-10T04:17:35;-0.70;99.90
19862;DHT22;10093;48.148;8.542;2022-12-10T04:20:00;-0.50;99.90
19862;DHT22;10093;48.148;8.542;2022-12-10T04:22:26;-0.60;99.90
19862;DHT22;10093;48.148;8.542;2022-12-10T04:25:13;-0.60;99.90
19862;DHT22;10093;48.148;8.542;2022-12-10T04:27:57;-0.50;99.90
19862;DHT22;10093;48.148;8.542;2022-12-10T04:30:23;-0.40;99.90
19862;DHT22;10093;48.148;8.542;2022-12-10T04:32:49;-0.60;99.90
19862;DHT22;10093;48.148;8.542;2022-12-10T04:35:14;-0.70;99.90
19862;DHT22;10093;48.148;8.542;2022-12-10T04:37:40;-0.60;99.90
19862;DHT22;10093;48.148;8.542;2022-12-10T04:40:06;-0.60;99.90
19862;DHT22;10093;48.148;8.542;2022-12-10T04:42:32;-0.60;99.90
19862;DHT22;10093;48.148;8.542;2022-12-10T04:44:58;-0.70;99.90
19862;DHT22;10093;48.148;8.542;2022-12-10T04:47:24;-0.80;99.90
19862;DHT22;10093;48.148;8.542;2022-12-10T04:49:49;-0.90;99.90
19862;DHT22;10093;48.148;8.542;2022-12-10T04:52:16;-0.90;99.90
19862;DHT22;10093;48.148;8.542;2022-12-10T04:54:42;-1.00;99.90
19862;DHT22;10093;48.148;8.542;2022-12-10T04:57:09;-0.90;99.90
19862;DHT22;10093;48.148;8.542;2022-12-10T04:59:35;-0.90;99.90
19862;DHT22;10093;48.148;8.542;2022-12-10T05:02:01;-0.90;99.90
19862;DHT22;10093;48.148;8.542;2022-12-10T05:04:27;-0.80;99.90
19862;DHT22;10093;48.148;8.542;2022-12-10T05:06:53;-0.90;99.90
19862;DHT22;10093;48.148;8.542;2022-12-10T05:09:18;-1.00;99.90
19862;DHT22;10093;48.148;8.542;2022-12-10T05:11:44;-1.00;99.90
19862;DHT22;10093;48.148;8.542;2022-12-10T05:14:14;-1.00;99.90
19862;DHT22;10093;48.148;8.542;2022-12-10T05:16:40;-0.80;99.90
19862;DHT22;10093;48.148;8.542;2022-12-10T05:19:06;-0.70;99.90
19862;DHT22;10093;48.148;8.542;2022-12-10T05:21:31;-0.80;99.90
19862;DHT22;10093;48.148;8.542;2022-12-10T05:24:17;-1.00;99.90
19862;DHT22;10093;48.148;8.542;2022-12-10T05:26:43;-1.00;99.90
19862;DHT22;10093;48.148;8.542;2022-12-10T05:29:09;-1.00;99.90
19862;DHT22;10093;48.148;8.542;2022-12-10T05:31:34;-1.00;99.90
19862;DHT22;10093;48.148;8.542;2022-12-10T05:34:00;-1.00;99.90
19862;DHT22;10093;48.148;8.542;2022-12-10T05:36:28;-1.00;99.90
19862;DHT22;10093;48.148;8.542;2022-12-10T05:38:56;-0.80;99.90
19862;DHT22;10093;48.148;8.542;2022-12-10T05:41:24;-0.90;99.90
19862;DHT22;10093;48.148;8.542;2022-12-10T05:43:50;-0.90;99.90
19862;DHT22;10093;48.148;8.542;2022-12-10T05:46:19;-0.80;99.90
19862;DHT22;10093;48.148;8.542;2022-12-10T05:48:45;-0.50;99.90
19862;DHT22;10093;48.148;8.542;2022-12-10T05:51:13;-0.60;99.90
19862;DHT22;10093;48.148;8.542;2022-12-10T05:53:40;-0.70;99.90
19862;DHT22;10093;48.148;8.542;2022-12-10T05:56:14;-0.70;99.90
19862;DHT22;10093;48.148;8.542;2022-12-10T05:58:42;-0.80;99.90
19862;DHT22;10093;48.148;8.542;2022-12-10T06:01:11;-0.70;99.90
19862;DHT22;10093;48.148;8.542;2022-12-10T06:03:36;-0.70;99.90
19862;DHT22;10093;48.148;8.542;2022-12-10T06:06:02;-0.60;99.90
19862;DHT22;10093;48.148;8.542;2022-12-10T06:08:28;-0.60;99.90
19862;DHT22;10093;48.148;8.542;2022-12-10T06:10:54;-0.60;99.90
19862;DHT22;10093;48.148;8.542;2022-12-10T06:13:20;-0.30;99.90
19862;DHT22;10093;48.148;8.542;2022-12-10T06:15:45;-0.10;99.90
19862;DHT22;10093;48.148;8.542;2022-12-10T06:18:11;-0.10;99.90
19862;DHT22;10093;48.148;8.542;2022-12-10T06:20:40;-0.20;99.90
19862;DHT22;10093;48.148;8.542;2022-12-10T06:23:06;-0.10;99.90
19862;DHT22;10093;48.148;8.542;2022-12-10T06:25:32;0.00;99.90
19862;DHT22;10093;48.148;8.542;2022-12-10T06:27:58;0.00;99.90
19862;DHT22;10093;48.148;8.542;2022-12-10T06:30:23;0.10;99.90
19862;DHT22;10093;48.148;8.542;2022-12-10T06:32:49;-0.10;99.90
19862;DHT22;10093;48.148;8.542;2022-12-10T06:35:14;-0.20;99.90
19862;DHT22;10093;48.148;8.542;2022-12-10T06:37:40;-0.10;99.90
19862;DHT22;10093;48.148;8.542;2022-12-10T06:40:06;-0.10;99.90
19862;DHT22;10093;48.148;8.542;2022-12-10T06:42:32;-0.20;99.90
19862;DHT22;10093;48.148;8.542;2022-12-10T06:44:58;-0.20;99.90
19862;DHT22;10093;48.148;8.542;2022-12-10T06:47:23;-0.10;99.90
19862;DHT22;10093;48.148;8.542;2022-12-10T06:49:49;0.00;99.90
19862;DHT22;10093;48.148;8.542;2022-12-10T06:52:15;-0.20;99.90
19862;DHT22;10093;48.148;8.542;2022-12-10T06:54:41;-0.10;99.90
19862;DHT22;10093;48.148;8.542;2022-12-10T06:57:06;-0.20;99.90
19862;DHT22;10093;48.148;8.542;2022-12-10T06:59:32;-0.20;99.90
19862;DHT22;10093;48.148;8.542;2022-12-10T07:01:57;-0.10;99.90
19862;DHT22;10093;48.148;8.542;2022-12-10T07:04:23;0.00;99.90
19862;DHT22;10093;48.148;8.542;2022-12-10T07:06:49;0.20;99.90
19862;DHT22;10093;48.148;8.542;2022-12-10T07:09:15;0.20;99.90
19862;DHT22;10093;48.148;8.542;2022-12-10T07:11:41;0.20;99.90
19862;DHT22;10093;48.148;8.542;2022-12-10T07:14:09;0.20;99.90
19862;DHT22;10093;48.148;8.542;2022-12-10T07:16:37;0.10;99.90
19862;DHT22;10093;48.148;8.542;2022-12-10T07:19:03;-0.10;99.90
19862;DHT22;10093;48.148;8.542;2022-12-10T07:21:33;-0.20;99.90
19862;DHT22;10093;48.148;8.542;2022-12-10T07:24:02;-0.20;99.90
19862;DHT22;10093;48.148;8.542;2022-12-10T07:26:29;-0.30;99.90
19862;DHT22;10093;48.148;8.542;2022-12-10T07:28:55;-0.30;99.90
19862;DHT22;10093;48.148;8.542;2022-12-10T07:31:22;-0.10;99.90
19862;DHT22;10093;48.148;8.542;2022-12-10T07:33:49;0.10;99.90
19862;DHT22;10093;48.148;8.542;2022-12-10T07:36:15;0.10;99.90
19862;DHT22;10093;48.148;8.542;2022-12-10T07:38:40;0.10;99.90
19862;DHT22;10093;48.148;8.542;2022-12-10T07:41:08;0.10;99.90
19862;DHT22;10093;48.148;8.542;2022-12-10T07:43:36;0.30;99.90
19862;DHT22;10093;48.148;8.542;2022-12-10T07:46:06;0.30;99.90
19862;DHT22;10093;48.148;8.542;2022-12-10T07:48:39;0.20;99.90
19862;DHT22;10093;48.148;8.542;2022-12-10T07:51:06;0.10;99.90
19862;DHT22;10093;48.148;8.542;2022-12-10T07:53:32;0.10;99.90
19862;DHT22;10093;48.148;8.542;2022-12-10T07:55:58;0.30;99.90
19862;DHT22;10093;48.148;8.542;2022-12-10T07:58:23;0.30;99.90
19862;DHT22;10093;48.148;8.542;2022-12-10T08:00:49;0.40;99.90
19862;DHT22;10093;48.148;8.542;2022-12-10T08:03:15;0.40;99.90
19862;DHT22;10093;48.148;8.542;2022-12-10T08:05:40;0.40;99.90
19862;DHT22;10093;48.148;8.542;2022-12-10T08:08:06;0.30;99.90
19862;DHT22;10093;48.148;8.542;2022-12-10T08:10:35;0.20;99.90
19862;DHT22;10093;48.148;8.542;2022-12-10T08:13:01;0.50;99.90
19862;DHT22;10093;48.148;8.542;2022-12-10T08:15:26;0.50;99.90
19862;DHT22;10093;48.148;8.542;2022-12-10T08:17:54;0.50;99.90
19862;DHT22;10093;48.148;8.542;2022-12-10T08:20:20;0.60;99.90
19862;DHT22;10093;48.148;8.542;2022-12-10T08:22:46;0.60;99.90
19862;DHT22;10093;48.148;8.542;2022-12-10T08:25:11;0.70;99.90
19862;DHT22;10093;48.148;8.542;2022-12-10T08:27:37;0.70;99.90
19862;DHT22;10093;48.148;8.542;2022-12-10T08:30:03;0.60;99.90
19862;DHT22;10093;48.148;8.542;2022-12-10T08:32:29;0.60;99.90
19862;DHT22;10093;48.148;8.542;2022-12-10T08:34:55;0.40;99.90
19862;DHT22;10093;48.148;8.542;2022-12-10T08:37:20;0.40;99.90
19862;DHT22;10093;48.148;8.542;2022-12-10T08:39:46;0.40;99.90
19862;DHT22;10093;48.148;8.542;2022-12-10T08:42:12;0.20;99.90
19862;DHT22;10093;48.148;8.542;2022-12-10T08:44:37;0.00;99.90
19862;DHT22;10093;48.148;8.542;2022-12-10T08:47:03;0.00;99.90
19862;DHT22;10093;48.148;8.542;2022-12-10T08:49:28;0.20;99.90
19862;DHT22;10093;48.148;8.542;2022-12-10T08:51:54;0.30;99.90
19862;DHT22;10093;48.148;8.542;2022-12-10T08:54:20;0.50;99.90
19862;DHT22;10093;48.148;8.542;2022-12-10T08:56:45;0.50;99.90
19862;DHT22;10093;48.148;8.542;2022-12-10T08:59:11;0.50;99.90
19862;DHT22;10093;48.148;8.542;2022-12-10T09:01:36;0.50;99.90
19862;DHT22;10093;48.148;8.542;2022-12-10T09:04:02;0.40;99.90
19862;DHT22;10093;48.148;8.542;2022-12-10T09:06:28;0.30;99.90
19862;DHT22;10093;48.148;8.542;2022-12-10T09:08:54;0.10;99.90
19862;DHT22;10093;48.148;8.542;2022-12-10T09:11:26;0.20;99.90
19862;DHT22;10093;48.148;8.542;2022-12-10T09:13:53;0.70;99.90
19862;DHT22;10093;48.148;8.542;2022-12-10T09:16:18;0.90;99.90
19862;DHT22;10093;48.148;8.542;2022-12-10T09:18:44;1.10;99.90
19862;DHT22;10093;48.148;8.542;2022-12-10T09:21:13;1.20;99.90
19862;DHT22;10093;48.148;8.542;2022-12-10T09:23:40;1.10;99.90
19862;DHT22;10093;48.148;8.542;2022-12-10T09:26:11;1.10;99.90
19862;DHT22;10093;48.148;8.542;2022-12-10T09:28:37;1.20;99.90
19862;DHT22;10093;48.148;8.542;2022-12-10T09:31:03;1.20;99.90
19862;DHT22;10093;48.148;8.542;2022-12-10T09:33:29;1.30;99.90
19862;DHT22;10093;48.148;8.542;2022-12-10T09:35:56;1.40;99.90
19862;DHT22;10093;48.148;8.542;2022-12-10T09:38:22;1.50;99.90
19862;DHT22;10093;48.148;8.542;2022-12-10T09:40:55;1.40;99.90
19862;DHT22;10093;48.148;8.542;2022-12-10T09:43:46;1.40;99.90
19862;DHT22;10093;48.148;8.542;2022-12-10T09:46:41;1.40;99.90
19862;DHT22;10093;48.148;8.542;2022-12-10T09:52:06;1.10;99.90
19862;DHT22;10093;48.148;8.542;2022-12-10T09:54:44;0.80;99.90
19862;DHT22;10093;48.148;8.542;2022-12-10T09:57:22;0.80;99.90
19862;DHT22;10093;48.148;8.542;2022-12-10T09:59:50;1.00;99.90
19862;DHT22;10093;48.148;8.542;2022-12-10T10:02:26;1.10;99.90
19862;DHT22;10093;48.148;8.542;2022-12-10T10:05:05;1.20;99.90
19862;DHT22;10093;48.148;8.542;2022-12-10T10:07:36;1.00;99.90
19862;DHT22;10093;48.148;8.542;2022-12-10T10:10:06;0.90;99.90
19862;DHT22;10093;48.148;8.542;2022-12-10T10:12:34;1.00;99.90
19862;DHT22;10093;48.148;8.542;2022-12-10T10:15:14;1.20;99.90
19862;DHT22;10093;48.148;8.542;2022-12-10T10:17:42;1.30;99.90
19862;DHT22;10093;48.148;8.542;2022-12-10T10:20:11;1.30;99.90
19862;DHT22;10093;48.148;8.542;2022-12-10T10:22:38;1.40;99.90
19862;DHT22;10093;48.148;8.542;2022-12-10T10:25:05;1.50;99.90
19862;DHT22;10093;48.148;8.542;2022-12-10T10:27:31;1.80;99.90
19862;DHT22;10093;48.148;8.542;2022-12-10T10:30:12;2.10;99.90
19862;DHT22;10093;48.148;8.542;2022-12-10T10:35:05;2.40;99.90
19862;DHT22;10093;48.148;8.542;2022-12-10T10:37:40;2.40;99.90
19862;DHT22;10093;48.148;8.542;2022-12-10T10:40:06;2.60;99.90
19862;DHT22;10093;48.148;8.542;2022-12-10T10:42:39;2.80;99.90
19862;DHT22;10093;48.148;8.542;2022-12-10T10:48:06;2.60;99.90
19862;DHT22;10093;48.148;8.542;2022-12-10T10:50:39;2.60;99.90
19862;DHT22;10093;48.148;8.542;2022-12-10T10:56:28;2.70;99.90
19862;DHT22;10093;48.148;8.542;2022-12-10T10:59:00;2.60;99.90
19862;DHT22;10093;48.148;8.542;2022-12-10T11:01:46;2.50;99.90
19862;DHT22;10093;48.148;8.542;2022-12-10T11:04:17;2.50;99.90
19862;DHT22;10093;48.148;8.542;2022-12-10T11:06:44;2.40;99.90
19862;DHT22;10093;48.148;8.542;2022-12-10T11:09:24;2.20;99.90
19862;DHT22;10093;48.148;8.542;2022-12-10T11:12:29;2.10;99.90
19862;DHT22;10093;48.148;8.542;2022-12-10T11:14:56;2.10;99.90
19862;DHT22;10093;48.148;8.542;2022-12-10T11:17:23;2.00;99.90
19862;DHT22;10093;48.148;8.542;2022-12-10T11:20:09;2.00;99.90
19862;DHT22;10093;48.148;8.542;2022-12-10T11:22:49;1.90;99.90
19862;DHT22;10093;48.148;8.542;2022-12-10T11:25:15;2.00;99.90
19862;DHT22;10093;48.148;8.542;2022-12-10T11:27:59;2.10;99.90
19862;DHT22;10093;48.148;8.542;2022-12-10T11:30:26;2.10;99.90
19862;DHT22;10093;48.148;8.542;2022-12-10T11:38:38;2.30;99.90
19862;DHT22;10093;48.148;8.542;2022-12-10T11:44:37;2.20;99.90
19862;DHT22;10093;48.148;8.542;2022-12-10T11:50:11;1.90;99.90
19862;DHT22;10093;48.148;8.542;2022-12-10T11:55:36;1.80;99.90
19862;DHT22;10093;48.148;8.542;2022-12-10T12:01:09;1.60;99.90
19862;DHT22;10093;48.148;8.542;2022-12-10T12:04:00;1.60;99.90
19862;DHT22;10093;48.148;8.542;2022-12-10T12:15:01;1.70;99.90
19862;DHT22;10093;48.148;8.542;2022-12-10T12:17:39;1.80;99.90
19862;DHT22;10093;48.148;8.542;2022-12-10T12:20:16;1.80;99.90
19862;DHT22;10093;48.148;8.542;2022-12-10T12:22:49;1.60;99.90
19862;DHT22;10093;48.148;8.542;2022-12-10T12:25:22;1.60;99.90
19862;DHT22;10093;48.148;8.542;2022-12-10T12:28:23;1.50;99.90
19862;DHT22;10093;48.148;8.542;2022-12-10T12:31:16;1.50;99.90
19862;DHT22;10093;48.148;8.542;2022-12-10T12:33:45;1.70;99.90
19862;DHT22;10093;48.148;8.542;2022-12-10T12:36:24;2.00;99.90
19862;DHT22;10093;48.148;8.542;2022-12-10T12:39:43;2.20;99.90
19862;DHT22;10093;48.148;8.542;2022-12-10T12:41:51;2.30;99.90
19862;DHT22;10093;48.148;8.542;2022-12-10T12:50:37;2.30;99.90
19862;DHT22;10093;48.148;8.542;2022-12-10T12:53:11;2.30;99.90
19862;DHT22;10093;48.148;8.542;2022-12-10T12:56:07;2.30;99.90
19862;DHT22;10093;48.148;8.542;2022-12-10T13:03:43;2.40;99.90
19862;DHT22;10093;48.148;8.542;2022-12-10T13:06:27;2.10;99.90
19862;DHT22;10093;48.148;8.542;2022-12-10T13:13:15;1.60;99.90
19862;DHT22;10093;48.148;8.542;2022-12-10T13:15:32;1.70;99.90
19862;DHT22;10093;48.148;8.542;2022-12-10T13:28:48;1.10;99.90
19862;DHT22;10093;48.148;8.542;2022-12-10T13:31:17;1.20;99.90
19862;DHT22;10093;48.148;8.542;2022-12-10T13:39:36;1.00;99.90
19862;DHT22;10093;48.148;8.542;2022-12-10T13:47:48;0.80;99.90
19862;DHT22;10093;48.148;8.542;2022-12-10T13:53:23;1.00;99.90
19862;DHT22;10093;48.148;8.542;2022-12-10T14:01:16;0.90;99.90
19862;DHT22;10093;48.148;8.542;2022-12-10T14:04:07;1.00;99.90
19862;DHT22;10093;48.148;8.542;2022-12-10T14:06:40;1.10;99.90
19862;DHT22;10093;48.148;8.542;2022-12-10T14:09:23;0.80;99.90
19862;DHT22;10093;48.148;8.542;2022-12-10T14:11:57;0.90;99.90
19862;DHT22;10093;48.148;8.542;2022-12-10T14:14:37;1.00;99.90
19862;DHT22;10093;48.148;8.542;2022-12-10T14:17:14;1.00;99.90
19862;DHT22;10093;48.148;8.542;2022-12-10T14:19:46;0.90;99.90
19862;DHT22;10093;48.148;8.542;2022-12-10T14:22:38;0.70;99.90
19862;DHT22;10093;48.148;8.542;2022-12-10T14:25:10;0.60;99.90
19862;DHT22;10093;48.148;8.542;2022-12-10T14:27:37;0.70;99.90
19862;DHT22;10093;48.148;8.542;2022-12-10T14:32:41;0.50;99.90
19862;DHT22;10093;48.148;8.542;2022-12-10T14:35:29;0.40;99.90
19862;DHT22;10093;48.148;8.542;2022-12-10T14:37:57;0.50;99.90
19862;DHT22;10093;48.148;8.542;2022-12-10T14:40:40;0.40;99.90
19862;DHT22;10093;48.148;8.542;2022-12-10T14:43:11;0.30;99.90
19862;DHT22;10093;48.148;8.542;2022-12-10T14:45:45;0.20;99.90
19862;DHT22;10093;48.148;8.542;2022-12-10T14:48:12;0.00;99.90
19862;DHT22;10093;48.148;8.542;2022-12-10T14:50:38;0.10;99.90
19862;DHT22;10093;48.148;8.542;2022-12-10T14:53:10;0.10;99.90
19862;DHT22;10093;48.148;8.542;2022-12-10T14:55:37;0.00;99.90
19862;DHT22;10093;48.148;8.542;2022-12-10T14:58:04;-0.10;99.90
19862;DHT22;10093;48.148;8.542;2022-12-10T15:00:31;-0.10;99.90
19862;DHT22;10093;48.148;8.542;2022-12-10T15:02:59;-0.40;99.90
19862;DHT22;10093;48.148;8.542;2022-12-10T15:05:33;-0.40;99.90
19862;DHT22;10093;48.148;8.542;2022-12-10T15:08:19;-0.50;99.90
19862;DHT22;10093;48.148;8.542;2022-12-10T15:10:50;-0.40;99.90
19862;DHT22;10093;48.148;8.542;2022-12-10T15:15:50;-0.60;99.90
19862;DHT22;10093;48.148;8.542;2022-12-10T15:18:27;-0.60;99.90
19862;DHT22;10093;48.148;8.542;2022-12-10T15:21:02;-0.60;99.90
19862;DHT22;10093;48.148;8.542;2022-12-10T15:28:33;-0.60;99.90
19862;DHT22;10093;48.148;8.542;2022-12-10T15:33:53;-0.90;99.90
19862;DHT22;10093;48.148;8.542;2022-12-10T15:36:25;-1.00;99.90
19862;DHT22;10093;48.148;8.542;2022-12-10T15:38:52;-1.10;99.90
19862;DHT22;10093;48.148;8.542;2022-12-10T15:49:23;-1.40;99.90
19862;DHT22;10093;48.148;8.542;2022-12-10T15:51:48;-1.40;99.90
19862;DHT22;10093;48.148;8.542;2022-12-10T15:54:35;-1.50;99.90
19862;DHT22;10093;48.148;8.542;2022-12-10T15:57:22;-1.60;99.90
19862;DHT22;10093;48.148;8.542;2022-12-10T15:59:51;-1.60;99.90
19862;DHT22;10093;48.148;8.542;2022-12-10T16:02:36;-1.60;99.90
19862;DHT22;10093;48.148;8.542;2022-12-10T16:07:35;-1.40;99.90
19862;DHT22;10093;48.148;8.542;2022-12-10T16:10:01;-1.60;99.90
19862;DHT22;10093;48.148;8.542;2022-12-10T16:12:27;-1.70;99.90
19862;DHT22;10093;48.148;8.542;2022-12-10T16:14:54;-1.70;99.90
19862;DHT22;10093;48.148;8.542;2022-12-10T16:17:29;-1.40;99.90
19862;DHT22;10093;48.148;8.542;2022-12-10T16:22:44;-1.50;99.90
19862;DHT22;10093;48.148;8.542;2022-12-10T16:25:10;-1.70;99.90
19862;DHT22;10093;48.148;8.542;2022-12-10T16:27:36;-1.70;99.90
19862;DHT22;10093;48.148;8.542;2022-12-10T16:30:36;-1.70;99.90
19862;DHT22;10093;48.148;8.542;2022-12-10T16:33:03;-1.80;99.90
19862;DHT22;10093;48.148;8.542;2022-12-10T16:35:29;-1.90;99.90
19862;DHT22;10093;48.148;8.542;2022-12-10T16:37:58;-2.00;99.90
19862;DHT22;10093;48.148;8.542;2022-12-10T16:40:25;-2.00;99.90
19862;DHT22;10093;48.148;8.542;2022-12-10T16:42:52;-2.00;99.90
19862;DHT22;10093;48.148;8.542;2022-12-10T16:45:25;-2.00;99.90
19862;DHT22;10093;48.148;8.542;2022-12-10T16:47:51;-2.00;99.90
19862;DHT22;10093;48.148;8.542;2022-12-10T16:50:18;-1.90;99.90
19862;DHT22;10093;48.148;8.542;2022-12-10T16:52:44;-1.90;99.90
19862;DHT22;10093;48.148;8.542;2022-12-10T16:55:15;-1.90;99.90
19862;DHT22;10093;48.148;8.542;2022-12-10T16:57:41;-2.00;99.90
19862;DHT22;10093;48.148;8.542;2022-12-10T17:00:09;-1.80;99.90
19862;DHT22;10093;48.148;8.542;2022-12-10T17:02:35;-1.70;99.90
19862;DHT22;10093;48.148;8.542;2022-12-10T17:05:00;-1.80;99.90
19862;DHT22;10093;48.148;8.542;2022-12-10T17:07:26;-1.50;99.90
19862;DHT22;10093;48.148;8.542;2022-12-10T17:09:52;-1.40;99.90
19862;DHT22;10093;48.148;8.542;2022-12-10T17:12:17;-1.60;99.90
19862;DHT22;10093;48.148;8.542;2022-12-10T17:14:44;-1.30;99.90
19862;DHT22;10093;48.148;8.542;2022-12-10T17:17:14;-1.20;99.90
19862;DHT22;10093;48.148;8.542;2022-12-10T17:19:40;-1.20;99.90
19862;DHT22;10093;48.148;8.542;2022-12-10T17:22:07;-1.20;99.90
19862;DHT22;10093;48.148;8.542;2022-12-10T17:24:33;-1.30;99.90
19862;DHT22;10093;48.148;8.542;2022-12-10T17:27:06;-1.20;99.90
19862;DHT22;10093;48.148;8.542;2022-12-10T17:29:36;-1.30;99.90
19862;DHT22;10093;48.148;8.542;2022-12-10T17:32:04;-1.40;99.90
19862;DHT22;10093;48.148;8.542;2022-12-10T17:34:30;-1.60;99.90
19862;DHT22;10093;48.148;8.542;2022-12-10T17:36:55;-1.80;99.90
19862;DHT22;10093;48.148;8.542;2022-12-10T17:39:22;-1.90;99.90
19862;DHT22;10093;48.148;8.542;2022-12-10T17:41:51;-2.00;99.90
19862;DHT22;10093;48.148;8.542;2022-12-10T17:44:18;-2.00;99.90
19862;DHT22;10093;48.148;8.542;2022-12-10T17:46:44;-1.90;99.90
19862;DHT22;10093;48.148;8.542;2022-12-10T17:49:14;-1.90;99.90
19862;DHT22;10093;48.148;8.542;2022-12-10T17:51:41;-1.90;99.90
19862;DHT22;10093;48.148;8.542;2022-12-10T17:54:07;-1.90;99.90
19862;DHT22;10093;48.148;8.542;2022-12-10T17:56:32;-1.90;99.90
19862;DHT22;10093;48.148;8.542;2022-12-10T17:58:58;-1.90;99.90
19862;DHT22;10093;48.148;8.542;2022-12-10T18:01:24;-2.00;99.90